Time;durP1;ratioP1;P1;durP2;ratioP2;P2;SDS_P1;SDS_P2;PMS_P1;PMS_P2;Temp;Humidity;BMP_temperature;BMP_pressure;BME280_temperature;BME280_humidity;BME280_pressure;Samples;Min_cycle;Max_cycle;Signal;HPM_P1;HPM_P2
2023/03/19 00:00:28;;;;;;;2.37;1.08;;;15.80;55.00;;;;;;2287527;55;21146;-67
2023/03/19 00:02:55;;;;;;;2.17;0.98;;;15.80;55.00;;;;;;2287987;55;21962;-68
2023/03/19 00:05:24;;;;;;;3.75;1.30;;;15.80;55.00;;;;;;2288021;55;21002;-67
2023/03/19 00:07:52;;;;;;;4.65;1.60;;;15.70;55.00;;;;;;2522890;54;21365;-70
2023/03/19 00:10:21;;;;;;;2.92;1.10;;;15.70;55.00;;;;;;2521899;54;21505;-69
2023/03/19 00:12:48;;;;;;;3.58;1.25;;;15.70;54.90;;;;;;2287191;55;20946;-67
2023/03/19 00:15:17;;;;;;;2.90;1.10;;;15.70;55.00;;;;;;2287535;55;20957;-67
2023/03/19 00:17:44;;;;;;;4.55;1.48;;;15.60;54.80;;;;;;2521088;54;21000;-68
2023/03/19 00:20:11;;;;;;;2.95;1.10;;;15.60;54.90;;;;;;2283713;55;20993;-69
2023/03/19 00:22:38;;;;;;;3.33;1.50;;;15.60;54.90;;;;;;2518633;54;20987;-70
2023/03/19 00:25:05;;;;;;;4.32;1.62;;;15.60;54.90;;;;;;2286724;55;21006;-69
2023/03/19 00:27:31;;;;;;;4.00;1.50;;;15.50;54.90;;;;;;2288703;55;21367;-67
2023/03/19 00:29:58;;;;;;;3.72;1.55;;;15.50;54.90;;;;;;2522110;54;20998;-68
2023/03/19 00:32:24;;;;;;;3.62;1.23;;;15.50;55.00;;;;;;2288861;55;20962;-68
2023/03/19 00:34:51;;;;;;;4.10;1.73;;;15.50;55.00;;;;;;2288281;55;21005;-67
2023/03/19 00:37:17;;;;;;;3.30;1.48;;;15.50;55.10;;;;;;2519208;54;21007;-70
2023/03/19 00:39:48;;;;;;;3.62;1.37;;;15.40;55.00;;;;;;2290677;55;21060;-67
2023/03/19 00:42:14;;;;;;;4.28;1.70;;;15.50;55.10;;;;;;2290374;55;21616;-67
2023/03/19 00:44:40;;;;;;;3.65;1.62;;;15.40;55.10;;;;;;2290709;55;21018;-67
2023/03/19 00:47:07;;;;;;;6.57;1.90;;;15.40;55.10;;;;;;2289673;55;20930;-66
2023/03/19 00:49:33;;;;;;;5.60;2.15;;;15.40;55.20;;;;;;2289050;55;20957;-67
2023/03/19 00:51:59;;;;;;;6.15;2.20;;;15.40;55.20;;;;;;2289265;55;21563;-67
2023/03/19 00:54:26;;;;;;;5.87;1.77;;;15.30;55.20;;;;;;2523799;54;20926;-67
2023/03/19 00:56:52;;;;;;;5.10;1.70;;;15.30;55.20;;;;;;2524102;54;21058;-67
2023/03/19 00:59:19;;;;;;;3.50;1.27;;;15.30;55.30;;;;;;2289463;55;21002;-67
2023/03/19 01:01:45;;;;;;;4.57;1.60;;;15.30;55.30;;;;;;2522975;54;21812;-67
2023/03/19 01:04:11;;;;;;;4.80;1.80;;;15.30;55.40;;;;;;2286976;55;20982;-67
2023/03/19 01:06:41;;;;;;;4.93;1.85;;;15.30;55.40;;;;;;2289085;55;20989;-68
2023/03/19 01:09:07;;;;;;;4.72;1.75;;;15.30;55.40;;;;;;2288740;55;20902;-67
2023/03/19 01:11:36;;;;;;;5.53;2.00;;;15.30;55.50;;;;;;2288759;55;20937;-66
2023/03/19 01:14:02;;;;;;;3.33;1.42;;;15.30;55.60;;;;;;2522539;54;21450;-68
2023/03/19 01:16:28;;;;;;;3.67;1.40;;;15.30;55.60;;;;;;2288339;55;21037;-67
2023/03/19 01:18:54;;;;;;;3.03;1.10;;;15.20;55.60;;;;;;2522867;54;20946;-67
2023/03/19 01:21:21;;;;;;;3.55;1.23;;;15.30;55.60;;;;;;2523426;54;20990;-67
2023/03/19 01:23:47;;;;;;;2.87;1.10;;;15.30;55.60;;;;;;2288056;55;20962;-68
2023/03/19 01:26:13;;;;;;;2.45;1.17;;;15.30;55.60;;;;;;2523256;54;20914;-67
2023/03/19 01:28:42;;;;;;;2.83;1.15;;;15.30;55.60;;;;;;2288466;55;20982;-69
2023/03/19 01:31:08;;;;;;;2.62;1.25;;;15.30;55.50;;;;;;2523024;54;20970;-66
2023/03/19 01:33:36;;;;;;;2.72;1.10;;;15.40;55.60;;;;;;2522891;54;21029;-67
2023/03/19 01:36:04;;;;;;;3.62;1.20;;;15.40;55.60;;;;;;2288509;55;21331;-69
2023/03/19 01:38:30;;;;;;;3.55;1.37;;;15.40;55.60;;;;;;2522891;54;20954;-67
2023/03/19 01:40:56;;;;;;;2.62;1.23;;;15.40;55.60;;;;;;2288223;56;20998;-66
2023/03/19 01:43:24;;;;;;;3.70;1.60;;;15.40;55.50;;;;;;2288502;55;21025;-67
2023/03/19 01:45:54;;;;;;;1.87;0.82;;;15.50;55.60;;;;;;2288295;55;21037;-67
2023/03/19 01:48:37;;;;;;;5.00;1.02;;;15.50;56.20;;;;;;2522720;54;20958;-67
2023/03/19 01:51:09;;;;;;;4.30;1.17;;;15.50;55.30;;;;;;2288356;55;20941;-68
2023/03/19 01:53:36;;;;;;;3.17;1.20;;;15.60;55.60;;;;;;2523132;54;20949;-68
2023/03/19 01:56:26;;;;;;;2.87;1.10;;;15.50;55.40;;;;;;2288801;55;21850;-69
2023/03/19 01:58:55;;;;;;;2.65;0.80;;;15.60;55.40;;;;;;2288862;55;21023;-70
2023/03/19 02:01:22;;;;;;;3.15;1.10;;;15.60;55.50;;;;;;2523163;54;20997;-67
2023/03/19 02:03:49;;;;;;;1.62;0.70;;;15.60;55.50;;;;;;2287748;55;21297;-67
2023/03/19 02:06:15;;;;;;;2.97;1.05;;;15.60;55.60;;;;;;2287218;56;20949;-67
2023/03/19 02:08:41;;;;;;;4.10;0.90;;;15.70;55.60;;;;;;2287052;55;21025;-66
2023/03/19 02:11:08;;;;;;;1.83;0.73;;;15.70;55.60;;;;;;2287456;55;20942;-66
2023/03/19 02:13:35;;;;;;;2.58;1.17;;;15.70;55.60;;;;;;2286849;55;21037;-67
2023/03/19 02:16:01;;;;;;;2.70;0.90;;;15.70;55.60;;;;;;2287261;55;20945;-66
2023/03/19 02:18:27;;;;;;;3.42;0.93;;;15.70;55.60;;;;;;2286923;55;21030;-67
2023/03/19 02:21:06;;;;;;;2.47;0.75;;;15.70;55.40;;;;;;2287019;55;20994;-68
2023/03/19 02:25:08;;;;;;;1.92;0.75;;;15.80;55.10;;;;;;2521037;54;21508;-67
2023/03/19 02:27:34;;;;;;;2.80;0.70;;;15.80;55.50;;;;;;2520820;54;25515;-68
2023/03/19 02:30:15;;;;;;;2.65;0.70;;;15.80;55.60;;;;;;2521198;54;21445;-67
2023/03/19 02:32:42;;;;;;;2.75;0.90;;;15.80;55.50;;;;;;2286920;55;21086;-68
2023/03/19 02:35:10;;;;;;;1.52;0.70;;;15.80;55.50;;;;;;2287034;55;21340;-66
2023/03/19 02:37:36;;;;;;;1.50;0.73;;;15.80;55.50;;;;;;2284963;55;20950;-71
2023/03/19 02:40:08;;;;;;;3.78;1.00;;;15.80;55.40;;;;;;2287067;55;21799;-67
2023/03/19 02:42:34;;;;;;;1.90;0.73;;;15.80;55.30;;;;;;2521267;54;20993;-67
2023/03/19 02:45:03;;;;;;;2.20;0.70;;;15.80;55.50;;;;;;2521670;54;21427;-68
2023/03/19 02:47:31;;;;;;;3.42;1.75;;;15.80;55.50;;;;;;2289562;55;20974;-67
2023/03/19 02:49:57;;;;;;;4.00;1.95;;;15.80;56.10;;;;;;2285216;55;21043;-70
2023/03/19 02:52:24;;;;;;;2.70;1.30;;;15.80;55.50;;;;;;2287017;55;21305;-67
2023/03/19 02:54:51;;;;;;;2.50;1.02;;;15.90;55.60;;;;;;2520177;54;21756;-67
2023/03/19 02:57:17;;;;;;;2.50;1.00;;;15.80;55.50;;;;;;2287033;55;21066;-69
2023/03/19 02:59:43;;;;;;;1.80;0.80;;;15.90;55.50;;;;;;2286880;55;21382;-67
2023/03/19 03:02:10;;;;;;;2.00;0.70;;;15.80;55.40;;;;;;2521537;54;20946;-67
2023/03/19 03:04:37;;;;;;;2.33;0.80;;;15.80;55.40;;;;;;2522751;54;21933;-69
2023/03/19 03:07:03;;;;;;;2.00;0.75;;;15.80;55.40;;;;;;2288537;55;21865;-68
2023/03/19 03:09:30;;;;;;;1.65;0.70;;;15.80;55.40;;;;;;2519679;54;20945;-68
2023/03/19 03:11:56;;;;;;;1.98;0.77;;;15.80;55.40;;;;;;2288494;55;21057;-67
2023/03/19 03:14:23;;;;;;;1.98;0.75;;;15.90;55.50;;;;;;2288295;55;21412;-67
2023/03/19 03:16:49;;;;;;;2.15;0.60;;;15.90;55.50;;;;;;2287986;55;21736;-67
2023/03/19 03:19:16;;;;;;;1.90;0.60;;;15.90;55.50;;;;;;2523068;54;20938;-70
2023/03/19 03:21:42;;;;;;;2.05;0.70;;;15.90;56.20;;;;;;2288631;55;21027;-68
2023/03/19 03:24:09;;;;;;;1.33;0.65;;;15.90;55.60;;;;;;2285390;55;21037;-68
2023/03/19 03:26:37;;;;;;;4.25;0.85;;;15.90;55.50;;;;;;2522641;54;22009;-67
2023/03/19 03:29:04;;;;;;;1.90;0.55;;;15.90;55.60;;;;;;2522692;54;21033;-67
2023/03/19 03:31:31;;;;;;;1.83;0.60;;;16.00;55.70;;;;;;2288012;55;21048;-66
2023/03/19 03:33:57;;;;;;;1.90;0.75;;;15.90;55.50;;;;;;2288240;55;20989;-68
2023/03/19 03:36:26;;;;;;;1.70;0.70;;;16.00;55.60;;;;;;2288374;56;21014;-68
2023/03/19 03:38:52;;;;;;;2.15;0.80;;;16.00;55.60;;;;;;2287935;55;21002;-68
2023/03/19 03:41:19;;;;;;;1.90;0.70;;;16.00;55.50;;;;;;2291758;55;20990;-67
2023/03/19 03:43:45;;;;;;;3.03;0.75;;;16.00;55.40;;;;;;2285541;55;21893;-66
2023/03/19 03:46:15;;;;;;;1.62;0.62;;;16.00;55.40;;;;;;2288730;55;20962;-67
2023/03/19 03:48:41;;;;;;;3.87;0.90;;;16.00;55.30;;;;;;2516519;54;20980;-68
2023/03/19 03:51:08;;;;;;;4.07;0.90;;;16.00;55.30;;;;;;2287779;55;21013;-69
2023/03/19 03:53:34;;;;;;;1.90;0.70;;;16.00;55.30;;;;;;2288005;55;21755;-67
2023/03/19 03:56:02;;;;;;;1.90;0.77;;;16.10;55.30;;;;;;2288352;55;21038;-67
2023/03/19 03:58:29;;;;;;;1.95;0.70;;;16.10;55.30;;;;;;2522366;54;21017;-70
2023/03/19 04:00:55;;;;;;;2.72;0.85;;;16.10;55.30;;;;;;2522641;54;21473;-66
2023/03/19 04:03:23;;;;;;;2.55;0.77;;;16.10;55.20;;;;;;2288174;55;21490;-70
2023/03/19 04:05:50;;;;;;;1.70;0.70;;;16.10;55.10;;;;;;2287856;55;21042;-67
2023/03/19 04:08:17;;;;;;;1.50;0.60;;;16.10;55.20;;;;;;2288413;56;21951;-67
2023/03/19 04:10:43;;;;;;;1.60;0.57;;;16.10;55.20;;;;;;2522692;54;20946;-69
2023/03/19 04:13:12;;;;;;;2.12;0.60;;;16.10;55.20;;;;;;2288663;55;21088;-67
2023/03/19 04:15:42;;;;;;;2.42;0.62;;;16.10;55.30;;;;;;2287926;55;20950;-70
2023/03/19 04:18:09;;;;;;;1.42;0.50;;;16.10;55.30;;;;;;2288181;55;21018;-67
2023/03/19 04:20:36;;;;;;;1.73;0.70;;;16.10;55.40;;;;;;2287617;55;20960;-70
2023/03/19 04:23:04;;;;;;;1.75;0.70;;;16.20;55.40;;;;;;2288365;55;20953;-69
2023/03/19 04:25:30;;;;;;;1.70;0.60;;;16.10;55.30;;;;;;2288392;55;20946;-67
2023/03/19 04:27:57;;;;;;;1.67;0.60;;;16.10;55.30;;;;;;2522596;54;21038;-68
2023/03/19 04:30:23;;;;;;;1.87;0.70;;;16.10;55.30;;;;;;2522998;54;21025;-68
2023/03/19 04:32:50;;;;;;;1.83;0.60;;;16.10;55.30;;;;;;2288020;55;21014;-67
2023/03/19 04:35:17;;;;;;;1.52;0.70;;;16.10;55.30;;;;;;2288762;55;21029;-68
2023/03/19 04:37:47;;;;;;;1.60;0.70;;;16.10;55.30;;;;;;2290465;55;21491;-68
2023/03/19 04:40:14;;;;;;;2.05;0.80;;;16.10;55.30;;;;;;2291109;55;21002;-67
2023/03/19 04:42:43;;;;;;;1.73;0.65;;;16.10;55.30;;;;;;2284221;55;21038;-67
2023/03/19 04:45:09;;;;;;;2.05;0.73;;;16.10;55.40;;;;;;2287756;55;21431;-68
2023/03/19 04:47:37;;;;;;;1.42;0.50;;;16.10;55.30;;;;;;2287824;55;21422;-67
2023/03/19 04:50:07;;;;;;;2.47;0.70;;;16.00;55.20;;;;;;2288231;55;21029;-70
2023/03/19 04:52:38;;;;;;;1.08;0.50;;;16.00;55.30;;;;;;2287952;55;21001;-68
2023/03/19 04:55:05;;;;;;;2.00;0.75;;;16.00;55.30;;;;;;2523034;54;20937;-68
2023/03/19 04:57:32;;;;;;;1.67;0.65;;;16.00;55.30;;;;;;2522351;54;21116;-70
2023/03/19 04:59:59;;;;;;;2.37;0.60;;;15.90;55.20;;;;;;2288267;55;21570;-68
2023/03/19 05:02:25;;;;;;;6.07;1.00;;;15.90;55.20;;;;;;2288144;55;21009;-68
2023/03/19 05:04:57;;;;;;;2.00;0.80;;;15.90;55.30;;;;;;2287560;55;21014;-69
2023/03/19 05:07:23;;;;;;;2.40;0.75;;;15.90;55.10;;;;;;2523296;54;20934;-67
2023/03/19 05:09:50;;;;;;;3.20;1.00;;;15.80;55.10;;;;;;2287964;55;21462;-67
2023/03/19 05:12:16;;;;;;;3.95;1.27;;;15.80;55.00;;;;;;2288629;55;21909;-70
2023/03/19 05:14:42;;;;;;;2.08;0.80;;;15.80;54.90;;;;;;2521428;54;20958;-67
2023/03/19 05:17:10;;;;;;;2.60;1.10;;;15.80;54.90;;;;;;2522792;54;20997;-67
2023/03/19 05:19:38;;;;;;;3.12;0.90;;;15.80;54.90;;;;;;2287488;55;20981;-69
2023/03/19 05:22:04;;;;;;;2.20;0.82;;;15.80;54.90;;;;;;2522500;54;21474;-67
2023/03/19 05:24:30;;;;;;;1.87;0.70;;;15.80;54.90;;;;;;2289504;55;20991;-67
2023/03/19 05:26:57;;;;;;;2.15;0.80;;;15.80;54.90;;;;;;2285528;55;20993;-67
2023/03/19 05:29:23;;;;;;;1.85;0.77;;;15.70;54.80;;;;;;2288436;55;20998;-67
2023/03/19 05:31:50;;;;;;;2.87;0.90;;;15.70;54.80;;;;;;2285390;55;20942;-68
2023/03/19 05:34:17;;;;;;;2.53;0.93;;;15.70;55.40;;;;;;2288541;55;21771;-66
2023/03/19 05:36:43;;;;;;;3.40;1.00;;;15.70;54.70;;;;;;2288185;55;21014;-67
2023/03/19 05:39:09;;;;;;;2.33;1.00;;;15.70;54.70;;;;;;2522382;54;21716;-67
2023/03/19 05:41:35;;;;;;;1.77;0.70;;;15.70;54.70;;;;;;2288000;55;21005;-70
2023/03/19 05:44:05;;;;;;;2.65;1.00;;;15.70;54.60;;;;;;2288227;55;21880;-68
2023/03/19 05:46:31;;;;;;;2.28;0.80;;;15.70;54.70;;;;;;2288385;55;20941;-69
2023/03/19 05:48:57;;;;;;;3.47;0.90;;;15.60;54.50;;;;;;2288243;55;20962;-67
2023/03/19 05:51:23;;;;;;;4.62;1.05;;;15.70;54.60;;;;;;2288537;55;21968;-68
2023/03/19 05:53:52;;;;;;;2.90;1.10;;;15.80;54.80;;;;;;2522462;54;21006;-70
2023/03/19 05:56:18;;;;;;;2.65;1.27;;;15.70;54.60;;;;;;2288949;55;20970;-67
2023/03/19 05:58:44;;;;;;;2.35;0.80;;;15.70;55.20;;;;;;2288405;55;20958;-68
2023/03/19 06:01:10;;;;;;;2.20;0.80;;;15.70;54.60;;;;;;2523432;54;21045;-70
2023/03/19 06:03:40;;;;;;;3.25;1.05;;;15.80;54.70;;;;;;2287971;55;20978;-67
2023/03/19 06:06:06;;;;;;;1.95;0.90;;;15.80;54.50;;;;;;2288368;55;21045;-68
2023/03/19 06:08:33;;;;;;;2.50;0.85;;;15.80;54.60;;;;;;2288141;55;21045;-68
2023/03/19 06:11:00;;;;;;;1.80;0.82;;;15.80;54.60;;;;;;2288007;55;20988;-66
2023/03/19 06:13:26;;;;;;;3.87;1.20;;;15.80;54.60;;;;;;2522984;54;20937;-69
2023/03/19 06:15:52;;;;;;;2.45;1.00;;;15.80;54.60;;;;;;2288229;55;21104;-68
2023/03/19 06:18:18;;;;;;;4.25;1.30;;;15.80;54.50;;;;;;2288894;55;21017;-67
2023/03/19 06:20:46;;;;;;;3.58;1.42;;;15.80;54.50;;;;;;2287463;55;20971;-68
2023/03/19 06:23:17;;;;;;;2.08;0.80;;;15.90;55.10;;;;;;2287323;55;21290;-67
2023/03/19 06:25:43;;;;;;;3.65;1.17;;;15.90;54.60;;;;;;2287593;55;21934;-67
2023/03/19 06:28:10;;;;;;;1.70;0.73;;;15.90;54.50;;;;;;2522997;54;20981;-68
2023/03/19 06:30:37;;;;;;;3.35;1.30;;;16.00;54.60;;;;;;2288951;55;21041;-67
2023/03/19 06:33:04;;;;;;;1.87;1.05;;;16.00;54.60;;;;;;2290970;55;21026;-68
2023/03/19 06:35:30;;;;;;;2.53;1.00;;;16.00;54.60;;;;;;2284842;55;21041;-68
2023/03/19 06:37:56;;;;;;;4.55;1.80;;;16.00;54.60;;;;;;2288036;55;20961;-68
2023/03/19 06:40:23;;;;;;;3.40;1.15;;;16.00;54.50;;;;;;2288424;55;20966;-67
2023/03/19 06:42:50;;;;;;;2.62;1.05;;;16.10;54.50;;;;;;2521789;54;21485;-67
2023/03/19 06:45:17;;;;;;;4.12;1.05;;;16.10;54.50;;;;;;2287508;55;20989;-70
2023/03/19 06:47:45;;;;;;;3.58;1.30;;;16.10;54.40;;;;;;2521813;54;20961;-69
2023/03/19 06:50:11;;;;;;;4.20;1.10;;;16.10;54.40;;;;;;2288254;55;21072;-67
2023/03/19 06:52:52;;;;;;;2.35;0.95;;;16.20;54.50;;;;;;2287826;55;21481;-68
2023/03/19 06:55:19;;;;;;;2.78;1.10;;;16.20;53.80;;;;;;2288304;55;20946;-67
2023/03/19 06:57:49;;;;;;;2.87;1.00;;;16.20;54.60;;;;;;2515275;54;21011;-69
2023/03/19 07:00:17;;;;;;;2.37;1.08;;;16.30;54.50;;;;;;2287551;55;21052;-68
2023/03/19 07:02:46;;;;;;;3.08;1.42;;;16.30;54.60;;;;;;2521359;54;21086;-68
2023/03/19 07:05:13;;;;;;;3.17;1.15;;;16.30;54.60;;;;;;2289142;55;21035;-67
2023/03/19 07:07:40;;;;;;;2.90;1.10;;;16.30;54.50;;;;;;2515061;54;20930;-67
2023/03/19 07:10:07;;;;;;;3.25;1.27;;;16.30;54.30;;;;;;2286669;55;20953;-68
2023/03/19 07:12:34;;;;;;;2.80;1.10;;;16.40;54.40;;;;;;2522076;54;20981;-70
2023/03/19 07:15:00;;;;;;;3.67;1.35;;;16.40;54.50;;;;;;2287507;55;21474;-68
2023/03/19 07:17:29;;;;;;;4.30;1.20;;;16.50;54.50;;;;;;2287334;55;21029;-68
2023/03/19 07:19:56;;;;;;;4.10;1.40;;;16.50;54.40;;;;;;2521982;54;21037;-67
2023/03/19 07:22:25;;;;;;;2.90;1.08;;;16.60;54.50;;;;;;2286032;55;20983;-67
2023/03/19 07:24:53;;;;;;;5.10;1.30;;;16.60;54.40;;;;;;2287155;55;21567;-69
2023/03/19 07:27:21;;;;;;;4.22;1.45;;;16.60;54.30;;;;;;2288279;55;20962;-68
2023/03/19 07:29:48;;;;;;;3.20;1.25;;;16.70;54.40;;;;;;2287208;55;20938;-68
2023/03/19 07:32:14;;;;;;;3.33;1.40;;;16.80;54.60;;;;;;2287920;55;20957;-69
2023/03/19 07:34:41;;;;;;;2.72;1.23;;;16.80;54.40;;;;;;2287592;55;20993;-71
2023/03/19 07:37:07;;;;;;;3.75;1.10;;;16.90;54.50;;;;;;2521340;54;20945;-67
2023/03/19 07:39:33;;;;;;;2.60;1.10;;;16.90;54.50;;;;;;2287642;55;20957;-68
2023/03/19 07:42:00;;;;;;;3.08;1.20;;;17.00;54.50;;;;;;2286999;55;20957;-70
2023/03/19 07:44:26;;;;;;;4.57;1.30;;;17.00;54.40;;;;;;2287862;55;21017;-68
2023/03/19 07:46:52;;;;;;;3.72;1.30;;;17.10;54.30;;;;;;2287839;55;20945;-67
2023/03/19 07:49:22;;;;;;;3.67;1.50;;;17.10;54.10;;;;;;2522954;54;21044;-68
2023/03/19 07:51:48;;;;;;;3.50;1.12;;;17.20;54.00;;;;;;2286642;55;21073;-68
2023/03/19 07:54:14;;;;;;;3.00;1.40;;;17.30;54.30;;;;;;2522298;54;20989;-72
2023/03/19 07:56:42;;;;;;;3.55;1.45;;;17.30;54.20;;;;;;2287630;55;21009;-69
2023/03/19 07:59:08;;;;;;;4.28;1.40;;;17.40;54.20;;;;;;2288237;55;21118;-72
2023/03/19 08:01:34;;;;;;;4.78;1.40;;;17.40;54.10;;;;;;2288888;55;20960;-68
2023/03/19 08:04:01;;;;;;;2.87;1.23;;;17.50;54.00;;;;;;2285576;55;21096;-71
2023/03/19 08:06:28;;;;;;;5.22;1.45;;;17.60;53.90;;;;;;2288267;55;20999;-72
2023/03/19 08:08:56;;;;;;;3.28;1.30;;;17.60;53.90;;;;;;2522663;54;20974;-68
2023/03/19 08:11:23;;;;;;;3.72;1.27;;;17.70;54.00;;;;;;2289097;55;20933;-73
2023/03/19 08:13:50;;;;;;;3.15;1.30;;;17.80;54.50;;;;;;2521844;54;20997;-72
2023/03/19 08:16:16;;;;;;;3.42;1.45;;;17.80;54.00;;;;;;2288067;55;21008;-71
2023/03/19 08:18:44;;;;;;;4.32;1.50;;;17.90;53.80;;;;;;2285509;55;21004;-70
2023/03/19 08:21:10;;;;;;;4.93;1.20;;;18.00;53.80;;;;;;2521765;54;20949;-69
2023/03/19 08:23:37;;;;;;;2.72;1.15;;;18.00;53.90;;;;;;2287826;55;20986;-69
2023/03/19 08:26:05;;;;;;;5.82;1.50;;;18.10;53.80;;;;;;2287328;55;22282;-70
2023/03/19 08:28:31;;;;;;;3.65;1.20;;;18.20;53.90;;;;;;2521850;54;21026;-66
2023/03/19 08:30:57;;;;;;;2.60;1.20;;;18.30;53.80;;;;;;2522492;54;20970;-65
2023/03/19 08:33:26;;;;;;;2.78;0.95;;;18.40;53.60;;;;;;2522436;54;21034;-66
2023/03/19 08:35:54;;;;;;;3.95;1.50;;;18.40;53.50;;;;;;2285527;55;21039;-66
2023/03/19 08:38:20;;;;;;;5.85;1.33;;;18.40;53.60;;;;;;2287034;55;20981;-66
2023/03/19 08:40:47;;;;;;;3.67;1.15;;;18.50;53.60;;;;;;2520755;54;21973;-69
2023/03/19 08:43:14;;;;;;;4.00;1.10;;;18.50;53.60;;;;;;2286758;55;20960;-68
2023/03/19 08:45:40;;;;;;;2.75;1.00;;;18.50;53.50;;;;;;2288435;55;21027;-67
2023/03/19 08:48:06;;;;;;;3.15;1.27;;;18.60;53.60;;;;;;2517994;54;20942;-68
2023/03/19 08:50:33;;;;;;;3.47;1.33;;;18.60;53.50;;;;;;2287284;55;21380;-69
2023/03/19 08:53:01;;;;;;;3.47;1.25;;;18.60;53.40;;;;;;2287753;55;20954;-66
2023/03/19 08:55:27;;;;;;;3.58;1.40;;;18.70;53.40;;;;;;2522177;54;20966;-66
2023/03/19 08:57:53;;;;;;;3.97;1.52;;;18.70;53.50;;;;;;2286603;55;21053;-67
2023/03/19 09:00:20;;;;;;;4.53;1.62;;;18.70;53.80;;;;;;2522572;54;20938;-66
2023/03/19 09:02:46;;;;;;;3.33;1.20;;;18.70;53.90;;;;;;2521605;54;21451;-72
2023/03/19 09:05:12;;;;;;;4.72;1.20;;;18.80;54.00;;;;;;2522388;54;21373;-68
2023/03/19 09:07:44;;;;;;;2.92;1.27;;;18.90;54.00;;;;;;2521793;54;20957;-69
2023/03/19 09:10:11;;;;;;;3.10;1.30;;;19.00;53.80;;;;;;2287691;55;20930;-70
2023/03/19 09:12:37;;;;;;;2.37;0.90;;;19.00;53.70;;;;;;2287504;55;20930;-69
2023/03/19 09:15:05;;;;;;;4.03;1.30;;;19.10;53.80;;;;;;2521907;54;20956;-70
2023/03/19 09:17:31;;;;;;;3.72;1.02;;;19.10;53.80;;;;;;2288162;55;21820;-68
2023/03/19 09:19:58;;;;;;;2.40;0.93;;;19.20;53.70;;;;;;2287403;55;20961;-70
2023/03/19 09:22:24;;;;;;;3.30;1.23;;;19.20;53.60;;;;;;2288495;55;20992;-70
2023/03/19 09:24:54;;;;;;;2.78;1.10;;;19.20;53.40;;;;;;2521715;54;21065;-73
2023/03/19 09:27:20;;;;;;;4.85;1.42;;;19.30;53.10;;;;;;2522518;54;21478;-70
2023/03/19 09:29:47;;;;;;;3.58;1.05;;;19.30;53.20;;;;;;2521630;54;21034;-69
2023/03/19 09:32:14;;;;;;;2.40;0.90;;;19.30;53.10;;;;;;2517042;54;21064;-70
2023/03/19 09:34:40;;;;;;;3.10;1.05;;;19.40;53.30;;;;;;2286555;55;20998;-66
2023/03/19 09:37:07;;;;;;;3.10;1.20;;;19.40;53.40;;;;;;2287487;55;22308;-67
2023/03/19 09:39:36;;;;;;;4.28;1.27;;;19.40;53.30;;;;;;2522292;54;20954;-65
2023/03/19 09:43:42;;;;;;;3.42;1.60;;;19.40;53.10;;;;;;2264851;55;20993;-69
2023/03/19 09:46:12;;;;;;;3.20;1.27;;;19.50;52.30;;;;;;2291145;55;20994;-70
2023/03/19 09:48:42;;;;;;;4.15;1.50;;;19.50;53.00;;;;;;2288200;55;20966;-70
2023/03/19 09:51:13;;;;;;;2.80;1.05;;;19.60;53.30;;;;;;2522872;54;20926;-69
2023/03/19 09:54:03;;;;;;;2.70;1.23;;;19.60;53.40;;;;;;2291332;55;20945;-70
2023/03/19 09:56:30;;;;;;;2.75;1.00;;;19.70;52.60;;;;;;2523496;54;20958;-72
2023/03/19 09:58:56;;;;;;;2.28;1.10;;;19.70;53.30;;;;;;2287601;55;21300;-69
2023/03/19 10:01:25;;;;;;;3.00;1.02;;;19.70;53.00;;;;;;2261226;55;1693033;-69
2023/03/19 10:04:16;;;;;;;3.62;0.98;;;19.70;52.80;;;;;;2287300;55;21009;-70
2023/03/19 10:06:42;;;;;;;1.98;0.80;;;19.80;52.20;;;;;;2287867;55;20998;-69
2023/03/19 10:09:44;;;;;;;3.22;0.90;;;19.80;52.80;;;;;;2521271;54;21027;-68
2023/03/19 10:15:03;;;;;;;4.35;1.40;;;19.80;52.00;;;;;;2285474;55;20970;-69
2023/03/19 10:17:35;;;;;;;2.03;0.93;;;19.80;52.20;;;;;;2288373;55;21041;-68
2023/03/19 10:20:03;;;;;;;;;;;19.80;53.00;;;;;;2292641;55;21032;-70
2023/03/19 10:22:39;;;;;;;2.60;0.70;;;19.90;52.70;;;;;;2285290;55;20068;-71
2023/03/19 10:25:08;;;;;;;2.20;0.70;;;19.90;53.00;;;;;;2287600;55;20954;-68
2023/03/19 10:27:35;;;;;;;2.55;0.85;;;19.90;53.10;;;;;;2523054;54;21426;-68
2023/03/19 10:30:04;;;;;;;3.40;0.77;;;19.90;53.00;;;;;;2521996;54;21435;-70
2023/03/19 10:34:56;;;;;;;2.90;0.90;;;19.80;52.80;;;;;;2522680;54;20965;-69
2023/03/19 10:37:25;;;;;;;2.20;0.70;;;19.80;51.80;;;;;;2288066;55;20949;-72
2023/03/19 10:39:57;;;;;;;3.97;0.90;;;19.80;52.90;;;;;;2521170;54;21860;-69
2023/03/19 10:49:12;;;;;;;2.55;1.00;;;19.80;52.40;;;;;;2288211;55;21025;-69
2023/03/19 10:51:38;;;;;;;2.92;1.23;;;19.80;52.40;;;;;;2287613;55;21831;-67
2023/03/19 10:54:20;;;;;;;2.97;1.20;;;19.70;52.50;;;;;;2287806;56;20966;-70
2023/03/19 10:56:47;;;;;;;2.87;1.25;;;19.60;51.60;;;;;;2521564;54;20994;-66
2023/03/19 10:59:25;;;;;;;3.97;1.35;;;19.70;52.20;;;;;;2282056;55;21053;-66
2023/03/19 11:02:13;;;;;;;2.72;1.10;;;19.60;51.70;;;;;;2287041;55;20954;-67
2023/03/19 11:04:39;;;;;;;2.67;1.00;;;19.60;51.70;;;;;;2287407;55;20950;-67
2023/03/19 11:07:12;;;;;;;2.53;1.00;;;19.50;52.40;;;;;;2287700;56;21854;-67
2023/03/19 11:09:48;;;;;;;4.70;1.15;;;19.50;52.30;;;;;;2265250;55;21009;-65
2023/03/19 11:12:23;;;;;;;2.95;0.93;;;19.50;52.50;;;;;;2287752;55;21041;-68
2023/03/19 11:14:51;;;;;;;2.65;0.90;;;19.50;52.20;;;;;;2521856;54;22006;-67
2023/03/19 11:17:22;;;;;;;2.70;0.90;;;19.50;52.70;;;;;;2288187;55;21779;-68
2023/03/19 11:19:56;;;;;;;2.10;0.75;;;19.50;52.40;;;;;;2287789;55;20945;-67
2023/03/19 11:22:36;;;;;;;2.30;0.75;;;19.50;52.50;;;;;;2287539;55;20978;-71
2023/03/19 11:25:57;;;;;;;1.62;0.60;;;19.50;52.20;;;;;;2287134;55;20985;-67
2023/03/19 11:28:25;;;;;;;1.83;0.70;;;19.50;52.30;;;;;;2287998;55;20938;-67
2023/03/19 11:31:55;;;;;;;2.35;0.77;;;19.50;52.90;;;;;;2521733;54;21467;-67
2023/03/19 11:36:18;;;;;;;1.87;0.75;;;19.60;52.40;;;;;;2286138;55;21019;-69
2023/03/19 11:40:40;;;;;;;1.87;0.70;;;19.60;52.40;;;;;;2522558;54;20952;-66
2023/03/19 11:44:48;;;;;;;2.05;0.70;;;19.70;52.80;;;;;;2287517;55;20966;-67
2023/03/19 11:50:24;;;;;;;2.50;0.82;;;19.70;52.10;;;;;;2522317;54;21854;-66
2023/03/19 11:53:31;;;;;;;1.98;0.68;;;19.70;52.40;;;;;;2283731;56;21025;-68
2023/03/19 12:02:17;;;;;;;1.65;0.40;;;19.70;52.20;;;;;;2287710;55;21435;-69
2023/03/19 12:05:18;;;;;;;1.15;0.47;;;19.70;52.90;;;;;;2291324;55;20973;-66
2023/03/19 12:09:06;;;;;;;2.50;0.80;;;19.70;53.20;;;;;;2288820;55;20958;-66
2023/03/19 12:11:53;;;;;;;2.12;0.90;;;19.70;52.90;;;;;;2290640;55;21044;-67
2023/03/19 12:14:49;;;;;;;2.28;0.73;;;19.80;53.50;;;;;;2286835;55;21451;-71
2023/03/19 12:19:10;;;;;;;2.95;0.62;;;19.70;53.60;;;;;;2289866;56;21013;-66
2023/03/19 12:24:56;;;;;;;0.93;0.50;;;19.80;53.30;;;;;;2291387;55;21005;-66
2023/03/19 12:34:03;;;;;;;2.85;0.90;;;20.10;53.60;;;;;;2525071;54;21407;-69
2023/03/19 12:36:32;;;;;;;1.25;0.60;;;20.10;53.50;;;;;;2289675;55;21463;-66
2023/03/19 12:39:04;;;;;;;1.00;0.40;;;20.30;53.90;;;;;;2523203;54;20950;-67
2023/03/19 12:41:30;;;;;;;1.50;0.50;;;20.30;53.80;;;;;;2517951;54;20984;-66
2023/03/19 12:44:21;;;;;;;0.90;0.40;;;20.40;54.10;;;;;;2521416;54;20986;-66
2023/03/19 12:47:12;;;;;;;1.50;0.50;;;20.50;53.10;;;;;;2288521;55;20950;-66
2023/03/19 12:49:58;;;;;;;1.10;0.40;;;20.50;53.10;;;;;;2523620;54;21665;-66
2023/03/19 12:52:44;;;;;;;1.00;0.40;;;20.60;53.40;;;;;;2523594;54;20965;-66
2023/03/19 12:55:20;;;;;;;1.17;0.40;;;20.60;53.10;;;;;;2288700;55;20961;-68
2023/03/19 12:57:56;;;;;;;1.12;0.40;;;20.70;52.90;;;;;;2522731;54;21458;-66
2023/03/19 13:00:27;;;;;;;2.20;0.40;;;20.70;52.90;;;;;;2288807;55;21057;-66
2023/03/19 13:03:22;;;;;;;1.33;0.47;;;20.80;53.20;;;;;;2288538;55;20941;-67
2023/03/19 13:06:03;;;;;;;1.33;0.40;;;20.80;52.30;;;;;;2523103;54;21407;-66
2023/03/19 13:08:43;;;;;;;1.50;0.52;;;20.80;52.60;;;;;;2289065;55;20930;-68
2023/03/19 13:11:17;;;;;;;1.85;0.50;;;20.80;52.60;;;;;;2523022;54;20974;-69
2023/03/19 13:13:56;;;;;;;1.58;0.50;;;20.80;53.10;;;;;;2291030;55;21115;-67
2023/03/19 13:24:44;;;;;;;1.52;0.60;;;20.80;52.80;;;;;;2284768;55;21026;-70
2023/03/19 13:27:14;;;;;;;0.95;0.30;;;20.80;51.70;;;;;;2522253;54;20942;-68
2023/03/19 13:29:52;;;;;;;1.37;0.50;;;20.80;52.40;;;;;;2288250;55;20937;-69
2023/03/19 13:32:25;;;;;;;1.30;0.37;;;20.80;51.70;;;;;;2288344;55;20957;-68
2023/03/19 13:35:00;;;;;;;;;;;20.70;52.30;;;;;;2526309;54;20997;-67
2023/03/19 13:37:27;;;;;;;1.45;0.50;;;20.80;52.00;;;;;;2288619;55;20120;-67
2023/03/19 13:39:54;;;;;;;2.92;0.60;;;20.70;52.90;;;;;;2285855;55;21833;-66
2023/03/19 13:42:37;;;;;;;1.33;0.50;;;20.70;52.70;;;;;;2520872;54;20997;-67
2023/03/19 13:45:34;;;;;;;1.30;0.60;;;20.70;52.10;;;;;;2522527;54;20954;-66
2023/03/19 13:50:56;;;;;;;2.03;0.60;;;20.70;51.70;;;;;;2522137;54;21474;-68
2023/03/19 13:53:34;;;;;;;1.70;0.50;;;20.70;51.80;;;;;;2288371;55;21018;-69